sensor_id;sensor_type;location;lat;lon;timestamp;pressure;altitude;pressure_sealevel;temperature;humidity
64713;BME280;51140;45.340;5.980;2023-04-29T00:00:00;100876.78;;;14.92;100.00
64713;BME280;51140;45.340;5.980;2023-04-29T00:02:25;100812.16;;;14.88;100.00
64713;BME280;51140;45.340;5.980;2023-04-29T00:04:51;100772.78;;;14.88;100.00
64713;BME280;51140;45.340;5.980;2023-04-29T00:07:16;100790.13;;;14.94;100.00
64713;BME280;51140;45.340;5.980;2023-04-29T00:09:42;100813.06;;;14.87;100.00
64713;BME280;51140;45.340;5.980;2023-04-29T00:12:07;100807.03;;;14.84;100.00
64713;BME280;51140;45.340;5.980;2023-04-29T00:14:34;100722.19;;;14.83;100.00
64713;BME280;51140;45.340;5.980;2023-04-29T00:16:59;100725.63;;;14.85;100.00
64713;BME280;51140;45.340;5.980;2023-04-29T00:19:24;100711.59;;;14.86;100.00
64713;BME280;51140;45.340;5.980;2023-04-29T00:21:50;100640.00;;;14.83;100.00
64713;BME280;51140;45.340;5.980;2023-04-29T00:24:16;100610.97;;;14.87;100.00
64713;BME280;51140;45.340;5.980;2023-04-29T00:26:41;100615.31;;;14.88;100.00
64713;BME280;51140;45.340;5.980;2023-04-29T00:29:07;100619.72;;;14.88;100.00
64713;BME280;51140;45.340;5.980;2023-04-29T00:31:32;100615.03;;;14.97;100.00
64713;BME280;51140;45.340;5.980;2023-04-29T00:33:57;100624.44;;;15.04;100.00
64713;BME280;51140;45.340;5.980;2023-04-29T00:36:23;100602.34;;;15.12;100.00
64713;BME280;51140;45.340;5.980;2023-04-29T00:38:50;100575.72;;;15.24;100.00
64713;BME280;51140;45.340;5.980;2023-04-29T00:41:15;100555.53;;;15.26;100.00
64713;BME280;51140;45.340;5.980;2023-04-29T00:43:40;100536.50;;;15.18;100.00
64713;BME280;51140;45.340;5.980;2023-04-29T00:46:06;100507.03;;;15.10;100.00
64713;BME280;51140;45.340;5.980;2023-04-29T00:48:31;100473.06;;;15.05;100.00
64713;BME280;51140;45.340;5.980;2023-04-29T00:50:57;100472.91;;;15.10;100.00
64713;BME280;51140;45.340;5.980;2023-04-29T00:53:23;100495.88;;;15.29;100.00
64713;BME280;51140;45.340;5.980;2023-04-29T00:55:49;100495.34;;;15.18;100.00
64713;BME280;51140;45.340;5.980;2023-04-29T00:58:17;100482.38;;;15.14;100.00
64713;BME280;51140;45.340;5.980;2023-04-29T01:00:42;100479.75;;;15.14;100.00
64713;BME280;51140;45.340;5.980;2023-04-29T01:03:08;100460.78;;;15.05;100.00
64713;BME280;51140;45.340;5.980;2023-04-29T01:05:34;100447.88;;;14.99;100.00
64713;BME280;51140;45.340;5.980;2023-04-29T01:10:43;100387.44;;;15.01;100.00
64713;BME280;51140;45.340;5.980;2023-04-29T01:18:49;100257.13;;;15.00;100.00
64713;BME280;51140;45.340;5.980;2023-04-29T01:21:14;100238.06;;;14.95;100.00
64713;BME280;51140;45.340;5.980;2023-04-29T01:23:40;100205.03;;;14.89;100.00
64713;BME280;51140;45.340;5.980;2023-04-29T01:26:05;100183.81;;;14.95;100.00
64713;BME280;51140;45.340;5.980;2023-04-29T01:28:53;100164.28;;;15.02;100.00
64713;BME280;51140;45.340;5.980;2023-04-29T01:32:01;100140.66;;;15.02;100.00
64713;BME280;51140;45.340;5.980;2023-04-29T01:34:43;100108.38;;;15.00;100.00
64713;BME280;51140;45.340;5.980;2023-04-29T01:37:18;100085.25;;;15.10;100.00
64713;BME280;51140;45.340;5.980;2023-04-29T01:40:04;100063.09;;;15.17;100.00
64713;BME280;51140;45.340;5.980;2023-04-29T01:42:39;99950.06;;;15.20;100.00
64713;BME280;51140;45.340;5.980;2023-04-29T01:45:10;99923.88;;;15.19;100.00
64713;BME280;51140;45.340;5.980;2023-04-29T01:47:38;99920.47;;;15.17;100.00
64713;BME280;51140;45.340;5.980;2023-04-29T01:50:03;99913.06;;;15.06;100.00
64713;BME280;51140;45.340;5.980;2023-04-29T01:52:29;99894.28;;;14.95;100.00
64713;BME280;51140;45.340;5.980;2023-04-29T01:54:55;99872.44;;;15.15;100.00
64713;BME280;51140;45.340;5.980;2023-04-29T01:57:21;99845.81;;;15.03;100.00
64713;BME280;51140;45.340;5.980;2023-04-29T01:59:46;99824.81;;;15.03;100.00
64713;BME280;51140;45.340;5.980;2023-04-29T02:02:12;99801.06;;;15.27;100.00
64713;BME280;51140;45.340;5.980;2023-04-29T02:04:39;99806.97;;;15.12;100.00
64713;BME280;51140;45.340;5.980;2023-04-29T02:07:04;99803.69;;;15.07;100.00
64713;BME280;51140;45.340;5.980;2023-04-29T02:09:30;99806.38;;;15.05;100.00
64713;BME280;51140;45.340;5.980;2023-04-29T02:11:55;99804.59;;;15.05;100.00
64713;BME280;51140;45.340;5.980;2023-04-29T02:14:21;99811.97;;;14.97;100.00
64713;BME280;51140;45.340;5.980;2023-04-29T02:16:46;99800.88;;;14.91;100.00
64713;BME280;51140;45.340;5.980;2023-04-29T02:19:12;99797.41;;;14.90;100.00
64713;BME280;51140;45.340;5.980;2023-04-29T02:21:37;99788.94;;;14.84;100.00
64713;BME280;51140;45.340;5.980;2023-04-29T02:24:04;99787.56;;;14.95;100.00
64713;BME280;51140;45.340;5.980;2023-04-29T02:26:30;99760.88;;;14.86;100.00
64713;BME280;51140;45.340;5.980;2023-04-29T02:28:56;99751.22;;;14.86;100.00
64713;BME280;51140;45.340;5.980;2023-04-29T02:31:22;99736.28;;;14.88;100.00
64713;BME280;51140;45.340;5.980;2023-04-29T02:33:47;99721.53;;;14.86;100.00
64713;BME280;51140;45.340;5.980;2023-04-29T02:36:12;99703.88;;;14.89;100.00
64713;BME280;51140;45.340;5.980;2023-04-29T02:38:38;99697.84;;;14.87;100.00
64713;BME280;51140;45.340;5.980;2023-04-29T02:41:03;99712.81;;;15.04;100.00
64713;BME280;51140;45.340;5.980;2023-04-29T02:43:28;99691.66;;;14.88;100.00
64713;BME280;51140;45.340;5.980;2023-04-29T02:45:57;99695.94;;;14.91;100.00
64713;BME280;51140;45.340;5.980;2023-04-29T02:48:22;99703.31;;;15.01;100.00
64713;BME280;51140;45.340;5.980;2023-04-29T02:50:47;99729.81;;;14.95;100.00
64713;BME280;51140;45.340;5.980;2023-04-29T02:53:13;99740.53;;;14.91;100.00
64713;BME280;51140;45.340;5.980;2023-04-29T02:55:38;99756.41;;;14.88;100.00
64713;BME280;51140;45.340;5.980;2023-04-29T02:58:04;99759.75;;;14.91;100.00
64713;BME280;51140;45.340;5.980;2023-04-29T03:00:29;99749.53;;;14.85;100.00
64713;BME280;51140;45.340;5.980;2023-04-29T03:02:54;99730.31;;;14.85;100.00
64713;BME280;51140;45.340;5.980;2023-04-29T03:05:20;99743.47;;;15.03;100.00
64713;BME280;51140;45.340;5.980;2023-04-29T03:07:45;99740.63;;;15.08;100.00
64713;BME280;51140;45.340;5.980;2023-04-29T03:10:11;99718.34;;;14.98;100.00
64713;BME280;51140;45.340;5.980;2023-04-29T03:12:36;99712.72;;;14.87;100.00
64713;BME280;51140;45.340;5.980;2023-04-29T03:15:04;99713.19;;;14.76;100.00
64713;BME280;51140;45.340;5.980;2023-04-29T03:17:30;99697.72;;;14.70;100.00
64713;BME280;51140;45.340;5.980;2023-04-29T03:19:56;99706.16;;;14.77;100.00
64713;BME280;51140;45.340;5.980;2023-04-29T03:22:21;99707.06;;;14.76;100.00
64713;BME280;51140;45.340;5.980;2023-04-29T03:24:46;99701.97;;;14.72;100.00
64713;BME280;51140;45.340;5.980;2023-04-29T03:27:12;99746.88;;;15.05;100.00
64713;BME280;51140;45.340;5.980;2023-04-29T03:29:38;99768.38;;;15.14;100.00
64713;BME280;51140;45.340;5.980;2023-04-29T03:32:04;99766.47;;;15.17;100.00
64713;BME280;51140;45.340;5.980;2023-04-29T03:34:29;99768.16;;;15.18;100.00
64713;BME280;51140;45.340;5.980;2023-04-29T03:36:54;99730.69;;;14.96;100.00
64713;BME280;51140;45.340;5.980;2023-04-29T03:39:21;99737.06;;;14.90;100.00
64713;BME280;51140;45.340;5.980;2023-04-29T03:41:47;99820.66;;;15.78;100.00
64713;BME280;51140;45.340;5.980;2023-04-29T03:44:12;99812.25;;;16.07;100.00
64713;BME280;51140;45.340;5.980;2023-04-29T03:46:38;99759.09;;;16.01;100.00
64713;BME280;51140;45.340;5.980;2023-04-29T03:49:03;99694.69;;;15.92;100.00
64713;BME280;51140;45.340;5.980;2023-04-29T03:51:28;99646.47;;;15.93;100.00
64713;BME280;51140;45.340;5.980;2023-04-29T03:53:54;99611.31;;;15.78;100.00
64713;BME280;51140;45.340;5.980;2023-04-29T03:56:23;99909.47;;;15.70;100.00
64713;BME280;51140;45.340;5.980;2023-04-29T03:58:51;100047.94;;;15.68;100.00
64713;BME280;51140;45.340;5.980;2023-04-29T04:01:17;100061.13;;;15.66;100.00
64713;BME280;51140;45.340;5.980;2023-04-29T04:03:42;100214.69;;;15.57;100.00
64713;BME280;51140;45.340;5.980;2023-04-29T04:06:08;100162.69;;;15.67;100.00
64713;BME280;51140;45.340;5.980;2023-04-29T04:08:33;100273.44;;;16.64;100.00
64713;BME280;51140;45.340;5.980;2023-04-29T04:10:58;100211.06;;;16.25;100.00
64713;BME280;51140;45.340;5.980;2023-04-29T04:13:30;100150.34;;;16.11;100.00
64713;BME280;51140;45.340;5.980;2023-04-29T04:15:55;57516.75;;;-143.28;100.00
64713;BME280;51140;45.340;5.980;2023-04-29T04:18:21;57516.75;;;-143.28;100.00
64713;BME280;51140;45.340;5.980;2023-04-29T04:20:46;57516.75;;;-143.28;100.00
64713;BME280;51140;45.340;5.980;2023-04-29T04:23:12;57516.75;;;-143.28;100.00
64713;BME280;51140;45.340;5.980;2023-04-29T04:25:37;57516.75;;;-143.28;100.00
64713;BME280;51140;45.340;5.980;2023-04-29T04:28:03;57516.75;;;-143.28;100.00
64713;BME280;51140;45.340;5.980;2023-04-29T04:30:29;57516.75;;;-143.28;100.00
64713;BME280;51140;45.340;5.980;2023-04-29T04:32:54;57516.75;;;-143.28;100.00
64713;BME280;51140;45.340;5.980;2023-04-29T04:35:19;57516.75;;;-143.28;100.00
64713;BME280;51140;45.340;5.980;2023-04-29T04:37:45;57516.75;;;-143.28;100.00
64713;BME280;51140;45.340;5.980;2023-04-29T04:40:11;57516.75;;;-143.28;100.00
64713;BME280;51140;45.340;5.980;2023-04-29T04:42:38;57516.75;;;-143.28;100.00
64713;BME280;51140;45.340;5.980;2023-04-29T04:45:03;57516.75;;;-143.28;100.00
64713;BME280;51140;45.340;5.980;2023-04-29T04:47:29;57516.75;;;-143.28;100.00
64713;BME280;51140;45.340;5.980;2023-04-29T04:49:54;57516.75;;;-143.28;100.00
64713;BME280;51140;45.340;5.980;2023-04-29T04:52:20;57516.75;;;-143.28;100.00
64713;BME280;51140;45.340;5.980;2023-04-29T04:54:46;57516.75;;;-143.28;100.00
64713;BME280;51140;45.340;5.980;2023-04-29T04:57:12;57516.75;;;-143.28;100.00
64713;BME280;51140;45.340;5.980;2023-04-29T04:59:37;57516.75;;;-143.28;100.00
64713;BME280;51140;45.340;5.980;2023-04-29T05:02:03;57516.75;;;-143.28;100.00
64713;BME280;51140;45.340;5.980;2023-04-29T05:04:28;57516.75;;;-143.28;100.00
64713;BME280;51140;45.340;5.980;2023-04-29T05:06:53;57516.75;;;-143.28;100.00
64713;BME280;51140;45.340;5.980;2023-04-29T05:09:19;57516.75;;;-143.28;100.00
64713;BME280;51140;45.340;5.980;2023-04-29T05:11:44;57516.75;;;-143.28;100.00
64713;BME280;51140;45.340;5.980;2023-04-29T05:14:10;57516.75;;;-143.28;100.00
64713;BME280;51140;45.340;5.980;2023-04-29T05:16:36;57516.75;;;-143.28;100.00
64713;BME280;51140;45.340;5.980;2023-04-29T05:19:02;57516.75;;;-143.28;100.00
64713;BME280;51140;45.340;5.980;2023-04-29T05:21:27;57516.75;;;-143.28;100.00
64713;BME280;51140;45.340;5.980;2023-04-29T05:23:53;57516.75;;;-143.28;100.00
64713;BME280;51140;45.340;5.980;2023-04-29T05:26:18;57516.75;;;-143.28;100.00
64713;BME280;51140;45.340;5.980;2023-04-29T05:28:43;57516.75;;;-143.28;100.00
64713;BME280;51140;45.340;5.980;2023-04-29T05:31:09;57516.75;;;-143.28;100.00
64713;BME280;51140;45.340;5.980;2023-04-29T05:33:35;57516.75;;;-143.28;100.00
64713;BME280;51140;45.340;5.980;2023-04-29T05:36:00;57516.75;;;-143.28;100.00
64713;BME280;51140;45.340;5.980;2023-04-29T05:38:26;57516.75;;;-143.28;100.00
64713;BME280;51140;45.340;5.980;2023-04-29T05:40:54;57516.75;;;-143.28;100.00
64713;BME280;51140;45.340;5.980;2023-04-29T05:43:19;57516.75;;;-143.28;100.00
64713;BME280;51140;45.340;5.980;2023-04-29T05:45:46;57516.75;;;-143.28;100.00
64713;BME280;51140;45.340;5.980;2023-04-29T05:48:11;57516.75;;;-143.28;100.00
64713;BME280;51140;45.340;5.980;2023-04-29T05:50:36;57516.75;;;-143.28;100.00
64713;BME280;51140;45.340;5.980;2023-04-29T05:53:02;57516.75;;;-143.28;100.00
64713;BME280;51140;45.340;5.980;2023-04-29T05:55:27;57516.75;;;-143.28;100.00
64713;BME280;51140;45.340;5.980;2023-04-29T05:57:52;57516.75;;;-143.28;100.00
64713;BME280;51140;45.340;5.980;2023-04-29T06:00:18;57516.75;;;-143.28;100.00
64713;BME280;51140;45.340;5.980;2023-04-29T06:02:43;57516.75;;;-143.28;100.00
64713;BME280;51140;45.340;5.980;2023-04-29T06:05:10;57516.75;;;-143.28;100.00
64713;BME280;51140;45.340;5.980;2023-04-29T06:07:35;57516.75;;;-143.28;100.00
64713;BME280;51140;45.340;5.980;2023-04-29T06:10:01;57516.75;;;-143.28;100.00
64713;BME280;51140;45.340;5.980;2023-04-29T06:12:26;57516.75;;;-143.28;100.00
64713;BME280;51140;45.340;5.980;2023-04-29T06:14:52;57516.75;;;-143.28;100.00
64713;BME280;51140;45.340;5.980;2023-04-29T06:17:17;57516.75;;;-143.28;100.00
64713;BME280;51140;45.340;5.980;2023-04-29T06:19:42;57516.75;;;-143.28;100.00
64713;BME280;51140;45.340;5.980;2023-04-29T06:22:08;57516.75;;;-143.28;100.00
64713;BME280;51140;45.340;5.980;2023-04-29T06:24:33;57516.75;;;-143.28;100.00
64713;BME280;51140;45.340;5.980;2023-04-29T06:26:59;57516.75;;;-143.28;100.00
64713;BME280;51140;45.340;5.980;2023-04-29T06:29:24;57516.75;;;-143.28;100.00
64713;BME280;51140;45.340;5.980;2023-04-29T06:31:49;57516.75;;;-143.28;100.00
64713;BME280;51140;45.340;5.980;2023-04-29T06:34:15;57516.75;;;-143.28;100.00
64713;BME280;51140;45.340;5.980;2023-04-29T06:36:40;57516.75;;;-143.28;100.00
64713;BME280;51140;45.340;5.980;2023-04-29T06:39:06;57516.75;;;-143.28;100.00
64713;BME280;51140;45.340;5.980;2023-04-29T06:41:31;57516.75;;;-143.28;100.00
64713;BME280;51140;45.340;5.980;2023-04-29T06:43:58;57516.75;;;-143.28;100.00
64713;BME280;51140;45.340;5.980;2023-04-29T06:46:23;57516.75;;;-143.28;100.00
64713;BME280;51140;45.340;5.980;2023-04-29T06:48:48;57516.75;;;-143.28;100.00
64713;BME280;51140;45.340;5.980;2023-04-29T06:51:14;57516.75;;;-143.28;100.00
64713;BME280;51140;45.340;5.980;2023-04-29T06:53:40;57516.75;;;-143.28;100.00
64713;BME280;51140;45.340;5.980;2023-04-29T06:56:06;57516.75;;;-143.28;100.00
64713;BME280;51140;45.340;5.980;2023-04-29T06:58:31;57516.75;;;-143.28;100.00
64713;BME280;51140;45.340;5.980;2023-04-29T07:00:57;57516.75;;;-143.28;100.00
64713;BME280;51140;45.340;5.980;2023-04-29T07:03:22;57516.75;;;-143.28;100.00
64713;BME280;51140;45.340;5.980;2023-04-29T07:05:47;57516.75;;;-143.28;100.00
64713;BME280;51140;45.340;5.980;2023-04-29T07:08:13;57516.75;;;-143.28;100.00
64713;BME280;51140;45.340;5.980;2023-04-29T07:10:39;57516.75;;;-143.28;100.00
64713;BME280;51140;45.340;5.980;2023-04-29T07:13:05;57516.75;;;-143.28;100.00
64713;BME280;51140;45.340;5.980;2023-04-29T07:15:34;57516.75;;;-143.28;100.00
64713;BME280;51140;45.340;5.980;2023-04-29T07:18:03;57516.75;;;-143.28;100.00
64713;BME280;51140;45.340;5.980;2023-04-29T07:20:28;57516.75;;;-143.28;100.00
64713;BME280;51140;45.340;5.980;2023-04-29T07:22:53;57516.75;;;-143.28;100.00
64713;BME280;51140;45.340;5.980;2023-04-29T07:25:19;57516.75;;;-143.28;100.00
64713;BME280;51140;45.340;5.980;2023-04-29T07:27:44;57516.75;;;-143.28;100.00
64713;BME280;51140;45.340;5.980;2023-04-29T07:30:09;57516.75;;;-143.28;100.00
64713;BME280;51140;45.340;5.980;2023-04-29T07:32:35;57516.75;;;-143.28;100.00
64713;BME280;51140;45.340;5.980;2023-04-29T07:35:01;57516.75;;;-143.28;100.00
64713;BME280;51140;45.340;5.980;2023-04-29T07:37:26;57516.75;;;-143.28;100.00
64713;BME280;51140;45.340;5.980;2023-04-29T07:39:54;57516.75;;;-143.28;100.00
64713;BME280;51140;45.340;5.980;2023-04-29T07:46:40;57516.75;;;-143.28;100.00
64713;BME280;51140;45.340;5.980;2023-04-29T07:49:28;57516.75;;;-143.28;100.00
64713;BME280;51140;45.340;5.980;2023-04-29T07:52:05;57516.75;;;-143.28;100.00
64713;BME280;51140;45.340;5.980;2023-04-29T07:55:28;57516.75;;;-143.28;100.00
64713;BME280;51140;45.340;5.980;2023-04-29T08:01:26;57516.75;;;-143.28;100.00
64713;BME280;51140;45.340;5.980;2023-04-29T08:04:15;57516.75;;;-143.28;100.00
64713;BME280;51140;45.340;5.980;2023-04-29T08:06:59;57516.75;;;-143.28;100.00
64713;BME280;51140;45.340;5.980;2023-04-29T08:09:55;57516.75;;;-143.28;100.00
64713;BME280;51140;45.340;5.980;2023-04-29T08:12:24;57516.75;;;-143.28;100.00
64713;BME280;51140;45.340;5.980;2023-04-29T08:15:03;57516.75;;;-143.28;100.00
64713;BME280;51140;45.340;5.980;2023-04-29T08:17:39;57516.75;;;-143.28;100.00
64713;BME280;51140;45.340;5.980;2023-04-29T08:23:46;57516.75;;;-143.28;100.00
64713;BME280;51140;45.340;5.980;2023-04-29T08:26:21;57516.75;;;-143.28;100.00
64713;BME280;51140;45.340;5.980;2023-04-29T08:28:49;57516.75;;;-143.28;100.00
64713;BME280;51140;45.340;5.980;2023-04-29T08:31:28;57516.75;;;-143.28;100.00
64713;BME280;51140;45.340;5.980;2023-04-29T08:33:56;57516.75;;;-143.28;100.00
64713;BME280;51140;45.340;5.980;2023-04-29T08:36:31;57516.75;;;-143.28;100.00
64713;BME280;51140;45.340;5.980;2023-04-29T08:39:38;57516.75;;;-143.28;100.00
64713;BME280;51140;45.340;5.980;2023-04-29T08:42:19;57516.75;;;-143.28;100.00
64713;BME280;51140;45.340;5.980;2023-04-29T08:45:02;57516.75;;;-143.28;100.00
64713;BME280;51140;45.340;5.980;2023-04-29T08:47:48;57516.75;;;-143.28;100.00
64713;BME280;51140;45.340;5.980;2023-04-29T08:53:31;57516.75;;;-143.28;100.00
64713;BME280;51140;45.340;5.980;2023-04-29T08:56:16;57516.75;;;-143.28;100.00
64713;BME280;51140;45.340;5.980;2023-04-29T08:58:51;57516.75;;;-143.28;100.00
64713;BME280;51140;45.340;5.980;2023-04-29T09:01:22;57516.75;;;-143.28;100.00
64713;BME280;51140;45.340;5.980;2023-04-29T09:04:08;57516.75;;;-143.28;100.00
64713;BME280;51140;45.340;5.980;2023-04-29T09:06:36;57516.75;;;-143.28;100.00
64713;BME280;51140;45.340;5.980;2023-04-29T09:09:02;57516.75;;;-143.28;100.00
64713;BME280;51140;45.340;5.980;2023-04-29T09:11:29;57516.75;;;-143.28;100.00
64713;BME280;51140;45.340;5.980;2023-04-29T09:14:01;57516.75;;;-143.28;100.00
64713;BME280;51140;45.340;5.980;2023-04-29T09:16:28;57516.75;;;-143.28;100.00
64713;BME280;51140;45.340;5.980;2023-04-29T09:18:54;57516.75;;;-143.28;100.00
64713;BME280;51140;45.340;5.980;2023-04-29T09:21:21;57516.75;;;-143.28;100.00
64713;BME280;51140;45.340;5.980;2023-04-29T09:23:50;57516.75;;;-143.28;100.00
64713;BME280;51140;45.340;5.980;2023-04-29T09:26:16;57516.75;;;-143.28;100.00
64713;BME280;51140;45.340;5.980;2023-04-29T09:28:41;57516.75;;;-143.28;100.00
64713;BME280;51140;45.340;5.980;2023-04-29T09:31:10;57516.75;;;-143.28;100.00
64713;BME280;51140;45.340;5.980;2023-04-29T09:33:53;57516.75;;;-143.28;100.00
64713;BME280;51140;45.340;5.980;2023-04-29T09:38:59;57516.75;;;-143.28;100.00
64713;BME280;51140;45.340;5.980;2023-04-29T09:41:24;57516.75;;;-143.28;100.00
64713;BME280;51140;45.340;5.980;2023-04-29T09:44:10;57516.75;;;-143.28;100.00
64713;BME280;51140;45.340;5.980;2023-04-29T09:46:36;57516.75;;;-143.28;100.00
64713;BME280;51140;45.340;5.980;2023-04-29T09:49:22;57516.75;;;-143.28;100.00
64713;BME280;51140;45.340;5.980;2023-04-29T09:51:56;57516.75;;;-143.28;100.00
64713;BME280;51140;45.340;5.980;2023-04-29T09:54:23;57516.75;;;-143.28;100.00
64713;BME280;51140;45.340;5.980;2023-04-29T09:56:52;57516.75;;;-143.28;100.00
64713;BME280;51140;45.340;5.980;2023-04-29T09:59:18;57516.75;;;-143.28;100.00
64713;BME280;51140;45.340;5.980;2023-04-29T10:01:47;57516.75;;;-143.28;100.00
64713;BME280;51140;45.340;5.980;2023-04-29T10:04:14;57516.75;;;-143.28;100.00
64713;BME280;51140;45.340;5.980;2023-04-29T10:06:40;57516.75;;;-143.28;100.00
64713;BME280;51140;45.340;5.980;2023-04-29T10:09:07;57516.75;;;-143.28;100.00
64713;BME280;51140;45.340;5.980;2023-04-29T10:11:35;57516.75;;;-143.28;100.00
64713;BME280;51140;45.340;5.980;2023-04-29T10:14:02;57516.75;;;-143.28;100.00
64713;BME280;51140;45.340;5.980;2023-04-29T10:16:30;57516.75;;;-143.28;100.00
64713;BME280;51140;45.340;5.980;2023-04-29T10:18:59;57516.75;;;-143.28;100.00
64713;BME280;51140;45.340;5.980;2023-04-29T10:21:29;57516.75;;;-143.28;100.00
64713;BME280;51140;45.340;5.980;2023-04-29T10:23:58;57516.75;;;-143.28;100.00
64713;BME280;51140;45.340;5.980;2023-04-29T10:26:27;57516.75;;;-143.28;100.00
64713;BME280;51140;45.340;5.980;2023-04-29T10:29:02;57516.75;;;-143.28;100.00
64713;BME280;51140;45.340;5.980;2023-04-29T10:31:30;57516.75;;;-143.28;100.00
64713;BME280;51140;45.340;5.980;2023-04-29T10:33:57;57516.75;;;-143.28;100.00
64713;BME280;51140;45.340;5.980;2023-04-29T10:36:24;57516.75;;;-143.28;100.00
64713;BME280;51140;45.340;5.980;2023-04-29T10:38:53;57516.75;;;-143.28;100.00
64713;BME280;51140;45.340;5.980;2023-04-29T10:41:25;57516.75;;;-143.28;100.00
64713;BME280;51140;45.340;5.980;2023-04-29T10:43:52;57516.75;;;-143.28;100.00
64713;BME280;51140;45.340;5.980;2023-04-29T10:46:20;57516.75;;;-143.28;100.00
64713;BME280;51140;45.340;5.980;2023-04-29T10:48:47;57516.75;;;-143.28;100.00
64713;BME280;51140;45.340;5.980;2023-04-29T10:51:27;57516.75;;;-143.28;100.00
64713;BME280;51140;45.340;5.980;2023-04-29T10:56:35;57516.75;;;-143.28;100.00
64713;BME280;51140;45.340;5.980;2023-04-29T10:59:02;57516.75;;;-143.28;100.00
64713;BME280;51140;45.340;5.980;2023-04-29T11:04:06;57516.75;;;-143.28;100.00
64713;BME280;51140;45.340;5.980;2023-04-29T11:09:28;57516.75;;;-143.28;100.00
64713;BME280;51140;45.340;5.980;2023-04-29T11:17:00;57516.75;;;-143.28;100.00
64713;BME280;51140;45.340;5.980;2023-04-29T11:19:39;57516.75;;;-143.28;100.00
64713;BME280;51140;45.340;5.980;2023-04-29T11:22:24;57516.75;;;-143.28;100.00
64713;BME280;51140;45.340;5.980;2023-04-29T11:27:20;57516.75;;;-143.28;100.00
64713;BME280;51140;45.340;5.980;2023-04-29T11:29:53;57516.75;;;-143.28;100.00
64713;BME280;51140;45.340;5.980;2023-04-29T11:32:33;57516.75;;;-143.28;100.00
64713;BME280;51140;45.340;5.980;2023-04-29T11:35:14;57516.75;;;-143.28;100.00
64713;BME280;51140;45.340;5.980;2023-04-29T11:37:42;57516.75;;;-143.28;100.00
64713;BME280;51140;45.340;5.980;2023-04-29T11:40:08;57516.75;;;-143.28;100.00
64713;BME280;51140;45.340;5.980;2023-04-29T11:42:39;57516.75;;;-143.28;100.00
64713;BME280;51140;45.340;5.980;2023-04-29T11:45:05;57516.75;;;-143.28;100.00
64713;BME280;51140;45.340;5.980;2023-04-29T11:47:31;57516.75;;;-143.28;100.00
64713;BME280;51140;45.340;5.980;2023-04-29T11:50:07;57516.75;;;-143.28;100.00
64713;BME280;51140;45.340;5.980;2023-04-29T11:52:34;57516.75;;;-143.28;100.00
64713;BME280;51140;45.340;5.980;2023-04-29T11:55:01;57516.75;;;-143.28;100.00
64713;BME280;51140;45.340;5.980;2023-04-29T11:57:27;57516.75;;;-143.28;100.00
64713;BME280;51140;45.340;5.980;2023-04-29T11:59:53;57516.75;;;-143.28;100.00
64713;BME280;51140;45.340;5.980;2023-04-29T12:02:28;57516.75;;;-143.28;100.00
64713;BME280;51140;45.340;5.980;2023-04-29T12:04:54;57516.75;;;-143.28;100.00
64713;BME280;51140;45.340;5.980;2023-04-29T12:07:21;57516.75;;;-143.28;100.00
64713;BME280;51140;45.340;5.980;2023-04-29T12:09:46;57516.75;;;-143.28;100.00
64713;BME280;51140;45.340;5.980;2023-04-29T12:12:13;57516.75;;;-143.28;100.00
64713;BME280;51140;45.340;5.980;2023-04-29T12:14:39;57516.75;;;-143.28;100.00
64713;BME280;51140;45.340;5.980;2023-04-29T12:17:06;57516.75;;;-143.28;100.00
64713;BME280;51140;45.340;5.980;2023-04-29T12:19:33;57516.75;;;-143.28;100.00
64713;BME280;51140;45.340;5.980;2023-04-29T12:22:01;57516.75;;;-143.28;100.00
64713;BME280;51140;45.340;5.980;2023-04-29T12:24:27;57516.75;;;-143.28;100.00
64713;BME280;51140;45.340;5.980;2023-04-29T12:26:54;57516.75;;;-143.28;100.00
64713;BME280;51140;45.340;5.980;2023-04-29T12:29:20;57516.75;;;-143.28;100.00
64713;BME280;51140;45.340;5.980;2023-04-29T12:31:49;57516.75;;;-143.28;100.00
64713;BME280;51140;45.340;5.980;2023-04-29T12:34:15;57516.75;;;-143.28;100.00
64713;BME280;51140;45.340;5.980;2023-04-29T12:36:41;57516.75;;;-143.28;100.00
64713;BME280;51140;45.340;5.980;2023-04-29T12:39:09;57516.75;;;-143.28;100.00
64713;BME280;51140;45.340;5.980;2023-04-29T12:41:41;57516.75;;;-143.28;100.00
64713;BME280;51140;45.340;5.980;2023-04-29T12:44:07;57516.75;;;-143.28;100.00
64713;BME280;51140;45.340;5.980;2023-04-29T12:46:36;57516.75;;;-143.28;100.00
64713;BME280;51140;45.340;5.980;2023-04-29T12:49:02;57516.75;;;-143.28;100.00
64713;BME280;51140;45.340;5.980;2023-04-29T12:51:31;57516.75;;;-143.28;100.00
64713;BME280;51140;45.340;5.980;2023-04-29T12:54:01;57516.75;;;-143.28;100.00
64713;BME280;51140;45.340;5.980;2023-04-29T12:56:28;57516.75;;;-143.28;100.00
64713;BME280;51140;45.340;5.980;2023-04-29T12:58:53;57516.75;;;-143.28;100.00
64713;BME280;51140;45.340;5.980;2023-04-29T13:01:19;57516.75;;;-143.28;100.00
64713;BME280;51140;45.340;5.980;2023-04-29T13:03:44;57516.75;;;-143.28;100.00
64713;BME280;51140;45.340;5.980;2023-04-29T13:06:10;57516.75;;;-143.28;100.00
64713;BME280;51140;45.340;5.980;2023-04-29T13:08:35;57516.75;;;-143.28;100.00
64713;BME280;51140;45.340;5.980;2023-04-29T13:11:01;57516.75;;;-143.28;100.00
64713;BME280;51140;45.340;5.980;2023-04-29T13:13:27;57516.75;;;-143.28;100.00
64713;BME280;51140;45.340;5.980;2023-04-29T13:15:52;57516.75;;;-143.28;100.00
64713;BME280;51140;45.340;5.980;2023-04-29T13:18:18;57516.75;;;-143.28;100.00
64713;BME280;51140;45.340;5.980;2023-04-29T13:20:43;57516.75;;;-143.28;100.00